sensor_id;sensor_type;location;lat;lon;timestamp;P1;durP1;ratioP1;P2;durP2;ratioP2
51654;SDS011;37732;53.106;7.030;2024-01-27T00:00:08;24.13;;;7.63;;
51654;SDS011;37732;53.106;7.030;2024-01-27T00:02:35;23.27;;;6.68;;
51654;SDS011;37732;53.106;7.030;2024-01-27T00:05:01;30.88;;;7.97;;
51654;SDS011;37732;53.106;7.030;2024-01-27T00:07:27;31.48;;;8.32;;
51654;SDS011;37732;53.106;7.030;2024-01-27T00:09:53;24.27;;;8.27;;
51654;SDS011;37732;53.106;7.030;2024-01-27T00:12:20;22.65;;;8.45;;
51654;SDS011;37732;53.106;7.030;2024-01-27T00:14:46;26.55;;;8.20;;
51654;SDS011;37732;53.106;7.030;2024-01-27T00:17:12;29.63;;;7.65;;
51654;SDS011;37732;53.106;7.030;2024-01-27T00:19:37;26.25;;;7.18;;
51654;SDS011;37732;53.106;7.030;2024-01-27T00:22:03;22.23;;;6.95;;
51654;SDS011;37732;53.106;7.030;2024-01-27T00:24:29;21.58;;;7.68;;
51654;SDS011;37732;53.106;7.030;2024-01-27T00:26:55;25.38;;;6.95;;
51654;SDS011;37732;53.106;7.030;2024-01-27T00:29:20;25.88;;;8.05;;
51654;SDS011;37732;53.106;7.030;2024-01-27T00:31:46;26.05;;;7.65;;
51654;SDS011;37732;53.106;7.030;2024-01-27T00:34:12;18.77;;;6.68;;
51654;SDS011;37732;53.106;7.030;2024-01-27T00:36:37;19.88;;;6.85;;
51654;SDS011;37732;53.106;7.030;2024-01-27T00:39:03;25.02;;;7.43;;
51654;SDS011;37732;53.106;7.030;2024-01-27T00:41:29;21.02;;;7.22;;
51654;SDS011;37732;53.106;7.030;2024-01-27T00:43:55;23.92;;;6.63;;
51654;SDS011;37732;53.106;7.030;2024-01-27T00:46:21;20.73;;;7.05;;
51654;SDS011;37732;53.106;7.030;2024-01-27T00:48:47;34.53;;;8.45;;
51654;SDS011;37732;53.106;7.030;2024-01-27T00:51:13;22.38;;;6.22;;
51654;SDS011;37732;53.106;7.030;2024-01-27T00:53:38;20.58;;;6.65;;
51654;SDS011;37732;53.106;7.030;2024-01-27T00:56:04;22.27;;;7.97;;
51654;SDS011;37732;53.106;7.030;2024-01-27T00:58:30;28.88;;;8.82;;
51654;SDS011;37732;53.106;7.030;2024-01-27T01:00:56;22.88;;;7.75;;
51654;SDS011;37732;53.106;7.030;2024-01-27T01:03:25;26.35;;;6.85;;
51654;SDS011;37732;53.106;7.030;2024-01-27T01:05:50;26.90;;;7.95;;
51654;SDS011;37732;53.106;7.030;2024-01-27T01:08:16;21.45;;;6.68;;
51654;SDS011;37732;53.106;7.030;2024-01-27T01:10:42;21.67;;;6.60;;
51654;SDS011;37732;53.106;7.030;2024-01-27T01:13:07;23.80;;;6.55;;
51654;SDS011;37732;53.106;7.030;2024-01-27T01:15:33;19.27;;;7.55;;
51654;SDS011;37732;53.106;7.030;2024-01-27T01:18:00;24.23;;;7.90;;
51654;SDS011;37732;53.106;7.030;2024-01-27T01:20:25;22.95;;;6.72;;
51654;SDS011;37732;53.106;7.030;2024-01-27T01:22:52;23.17;;;7.25;;
51654;SDS011;37732;53.106;7.030;2024-01-27T01:25:18;20.27;;;6.72;;
51654;SDS011;37732;53.106;7.030;2024-01-27T01:27:44;20.85;;;7.13;;
51654;SDS011;37732;53.106;7.030;2024-01-27T01:30:11;27.75;;;6.35;;
51654;SDS011;37732;53.106;7.030;2024-01-27T01:32:37;24.35;;;6.70;;
51654;SDS011;37732;53.106;7.030;2024-01-27T01:35:02;19.90;;;6.95;;
51654;SDS011;37732;53.106;7.030;2024-01-27T01:37:29;16.42;;;6.82;;
51654;SDS011;37732;53.106;7.030;2024-01-27T01:39:54;30.48;;;6.65;;
51654;SDS011;37732;53.106;7.030;2024-01-27T01:42:20;23.67;;;6.65;;
51654;SDS011;37732;53.106;7.030;2024-01-27T01:44:49;19.58;;;6.07;;
51654;SDS011;37732;53.106;7.030;2024-01-27T01:47:16;25.30;;;7.55;;
51654;SDS011;37732;53.106;7.030;2024-01-27T01:49:43;24.58;;;7.07;;
51654;SDS011;37732;53.106;7.030;2024-01-27T01:52:09;30.02;;;7.10;;
51654;SDS011;37732;53.106;7.030;2024-01-27T01:54:35;25.38;;;7.28;;
51654;SDS011;37732;53.106;7.030;2024-01-27T01:57:00;18.80;;;7.28;;
51654;SDS011;37732;53.106;7.030;2024-01-27T01:59:28;25.33;;;7.30;;
51654;SDS011;37732;53.106;7.030;2024-01-27T02:01:54;21.90;;;6.80;;
51654;SDS011;37732;53.106;7.030;2024-01-27T02:04:22;25.70;;;6.93;;
51654;SDS011;37732;53.106;7.030;2024-01-27T02:06:48;18.50;;;7.50;;
51654;SDS011;37732;53.106;7.030;2024-01-27T02:09:14;23.25;;;8.10;;
51654;SDS011;37732;53.106;7.030;2024-01-27T02:11:40;19.73;;;7.85;;
51654;SDS011;37732;53.106;7.030;2024-01-27T02:14:06;16.52;;;6.75;;
51654;SDS011;37732;53.106;7.030;2024-01-27T02:16:32;22.10;;;7.25;;
51654;SDS011;37732;53.106;7.030;2024-01-27T02:18:58;20.67;;;7.03;;
51654;SDS011;37732;53.106;7.030;2024-01-27T02:21:23;22.10;;;6.20;;
51654;SDS011;37732;53.106;7.030;2024-01-27T02:23:49;20.10;;;6.65;;
51654;SDS011;37732;53.106;7.030;2024-01-27T02:26:15;22.77;;;6.95;;
51654;SDS011;37732;53.106;7.030;2024-01-27T02:28:40;23.40;;;7.25;;
51654;SDS011;37732;53.106;7.030;2024-01-27T02:31:06;23.85;;;7.22;;
51654;SDS011;37732;53.106;7.030;2024-01-27T02:33:32;18.65;;;7.00;;
51654;SDS011;37732;53.106;7.030;2024-01-27T02:35:57;22.50;;;6.35;;
51654;SDS011;37732;53.106;7.030;2024-01-27T02:38:23;22.60;;;7.95;;
51654;SDS011;37732;53.106;7.030;2024-01-27T02:40:49;22.77;;;6.57;;
51654;SDS011;37732;53.106;7.030;2024-01-27T02:43:14;17.35;;;7.05;;
51654;SDS011;37732;53.106;7.030;2024-01-27T02:45:40;21.33;;;7.70;;
51654;SDS011;37732;53.106;7.030;2024-01-27T02:48:06;21.17;;;6.82;;
51654;SDS011;37732;53.106;7.030;2024-01-27T02:50:33;18.77;;;6.80;;
51654;SDS011;37732;53.106;7.030;2024-01-27T02:52:59;19.45;;;6.75;;
51654;SDS011;37732;53.106;7.030;2024-01-27T02:55:25;20.77;;;6.35;;
51654;SDS011;37732;53.106;7.030;2024-01-27T02:57:50;22.42;;;7.03;;
51654;SDS011;37732;53.106;7.030;2024-01-27T03:00:16;19.30;;;6.03;;
51654;SDS011;37732;53.106;7.030;2024-01-27T03:02:42;21.33;;;6.15;;
51654;SDS011;37732;53.106;7.030;2024-01-27T03:05:08;23.73;;;6.55;;
51654;SDS011;37732;53.106;7.030;2024-01-27T03:07:33;20.95;;;6.85;;
51654;SDS011;37732;53.106;7.030;2024-01-27T03:09:59;21.27;;;5.88;;
51654;SDS011;37732;53.106;7.030;2024-01-27T03:12:25;22.77;;;6.38;;
51654;SDS011;37732;53.106;7.030;2024-01-27T03:14:51;22.23;;;5.70;;
51654;SDS011;37732;53.106;7.030;2024-01-27T03:17:17;22.67;;;6.20;;
51654;SDS011;37732;53.106;7.030;2024-01-27T03:19:42;19.20;;;5.60;;
51654;SDS011;37732;53.106;7.030;2024-01-27T03:22:08;17.85;;;5.10;;
51654;SDS011;37732;53.106;7.030;2024-01-27T03:24:34;21.17;;;6.35;;
51654;SDS011;37732;53.106;7.030;2024-01-27T03:27:00;15.77;;;6.32;;
51654;SDS011;37732;53.106;7.030;2024-01-27T03:29:25;22.25;;;7.57;;
51654;SDS011;37732;53.106;7.030;2024-01-27T03:31:51;15.35;;;6.15;;
51654;SDS011;37732;53.106;7.030;2024-01-27T03:34:17;20.92;;;5.70;;
51654;SDS011;37732;53.106;7.030;2024-01-27T03:36:47;20.38;;;5.97;;
51654;SDS011;37732;53.106;7.030;2024-01-27T03:39:13;23.27;;;6.78;;
51654;SDS011;37732;53.106;7.030;2024-01-27T03:41:39;15.95;;;5.65;;
51654;SDS011;37732;53.106;7.030;2024-01-27T03:44:05;19.95;;;6.05;;
51654;SDS011;37732;53.106;7.030;2024-01-27T03:46:30;21.35;;;6.95;;
51654;SDS011;37732;53.106;7.030;2024-01-27T03:48:56;26.70;;;7.28;;
51654;SDS011;37732;53.106;7.030;2024-01-27T03:51:22;26.73;;;6.72;;
51654;SDS011;37732;53.106;7.030;2024-01-27T03:53:48;18.27;;;6.07;;
51654;SDS011;37732;53.106;7.030;2024-01-27T03:56:14;24.58;;;6.00;;
51654;SDS011;37732;53.106;7.030;2024-01-27T03:58:39;15.48;;;5.78;;
51654;SDS011;37732;53.106;7.030;2024-01-27T04:01:05;15.70;;;5.30;;
51654;SDS011;37732;53.106;7.030;2024-01-27T04:03:31;23.45;;;6.72;;
51654;SDS011;37732;53.106;7.030;2024-01-27T04:05:57;24.27;;;6.57;;
51654;SDS011;37732;53.106;7.030;2024-01-27T04:08:23;17.98;;;6.03;;
51654;SDS011;37732;53.106;7.030;2024-01-27T04:10:48;17.80;;;6.10;;
51654;SDS011;37732;53.106;7.030;2024-01-27T04:13:15;20.23;;;5.93;;
51654;SDS011;37732;53.106;7.030;2024-01-27T04:15:40;27.85;;;6.38;;
51654;SDS011;37732;53.106;7.030;2024-01-27T04:18:07;17.83;;;7.13;;
51654;SDS011;37732;53.106;7.030;2024-01-27T04:20:34;24.17;;;7.88;;
51654;SDS011;37732;53.106;7.030;2024-01-27T04:23:00;21.58;;;9.25;;
51654;SDS011;37732;53.106;7.030;2024-01-27T04:25:26;23.10;;;8.35;;
51654;SDS011;37732;53.106;7.030;2024-01-27T04:27:52;23.25;;;7.68;;
51654;SDS011;37732;53.106;7.030;2024-01-27T04:30:18;27.92;;;8.07;;
51654;SDS011;37732;53.106;7.030;2024-01-27T04:32:44;19.08;;;7.38;;
51654;SDS011;37732;53.106;7.030;2024-01-27T04:35:10;18.30;;;6.82;;
51654;SDS011;37732;53.106;7.030;2024-01-27T04:37:36;21.52;;;7.28;;
51654;SDS011;37732;53.106;7.030;2024-01-27T04:40:03;17.05;;;5.85;;
51654;SDS011;37732;53.106;7.030;2024-01-27T04:42:32;18.80;;;5.07;;
51654;SDS011;37732;53.106;7.030;2024-01-27T04:45:03;23.92;;;6.50;;
51654;SDS011;37732;53.106;7.030;2024-01-27T04:47:29;25.77;;;7.30;;
51654;SDS011;37732;53.106;7.030;2024-01-27T04:49:55;20.60;;;6.03;;
51654;SDS011;37732;53.106;7.030;2024-01-27T04:52:22;16.88;;;6.20;;
51654;SDS011;37732;53.106;7.030;2024-01-27T04:54:48;17.95;;;6.38;;
51654;SDS011;37732;53.106;7.030;2024-01-27T04:57:14;21.00;;;6.22;;
51654;SDS011;37732;53.106;7.030;2024-01-27T04:59:40;25.55;;;6.15;;
51654;SDS011;37732;53.106;7.030;2024-01-27T05:02:05;21.55;;;6.25;;
51654;SDS011;37732;53.106;7.030;2024-01-27T05:04:32;15.05;;;5.38;;
51654;SDS011;37732;53.106;7.030;2024-01-27T05:06:57;19.13;;;5.97;;
51654;SDS011;37732;53.106;7.030;2024-01-27T05:09:23;18.80;;;5.82;;
51654;SDS011;37732;53.106;7.030;2024-01-27T05:11:49;19.85;;;6.55;;
51654;SDS011;37732;53.106;7.030;2024-01-27T05:14:17;25.45;;;7.05;;
51654;SDS011;37732;53.106;7.030;2024-01-27T05:16:43;18.45;;;6.07;;
51654;SDS011;37732;53.106;7.030;2024-01-27T05:19:10;18.05;;;5.88;;
51654;SDS011;37732;53.106;7.030;2024-01-27T05:21:36;15.63;;;5.65;;
51654;SDS011;37732;53.106;7.030;2024-01-27T05:24:03;20.17;;;5.80;;
51654;SDS011;37732;53.106;7.030;2024-01-27T05:26:30;26.83;;;6.38;;
51654;SDS011;37732;53.106;7.030;2024-01-27T05:28:56;20.33;;;5.60;;
51654;SDS011;37732;53.106;7.030;2024-01-27T05:31:21;17.15;;;5.68;;
51654;SDS011;37732;53.106;7.030;2024-01-27T05:33:47;24.25;;;6.50;;
51654;SDS011;37732;53.106;7.030;2024-01-27T05:36:13;26.33;;;6.45;;
51654;SDS011;37732;53.106;7.030;2024-01-27T05:38:39;18.92;;;6.15;;
51654;SDS011;37732;53.106;7.030;2024-01-27T05:41:04;20.77;;;6.65;;
51654;SDS011;37732;53.106;7.030;2024-01-27T05:43:30;18.60;;;6.13;;
51654;SDS011;37732;53.106;7.030;2024-01-27T05:45:56;22.13;;;6.85;;
51654;SDS011;37732;53.106;7.030;2024-01-27T05:48:21;29.05;;;7.47;;
51654;SDS011;37732;53.106;7.030;2024-01-27T05:53:25;19.77;;;6.60;;
51654;SDS011;37732;53.106;7.030;2024-01-27T05:55:51;26.50;;;6.30;;
51654;SDS011;37732;53.106;7.030;2024-01-27T05:58:18;20.13;;;6.53;;
51654;SDS011;37732;53.106;7.030;2024-01-27T06:00:47;17.85;;;6.25;;
51654;SDS011;37732;53.106;7.030;2024-01-27T06:03:13;18.70;;;6.55;;
51654;SDS011;37732;53.106;7.030;2024-01-27T06:05:40;20.17;;;6.03;;
51654;SDS011;37732;53.106;7.030;2024-01-27T06:08:07;23.15;;;7.10;;
51654;SDS011;37732;53.106;7.030;2024-01-27T06:10:33;24.92;;;8.00;;
51654;SDS011;37732;53.106;7.030;2024-01-27T06:12:59;20.95;;;9.02;;
51654;SDS011;37732;53.106;7.030;2024-01-27T06:15:24;28.30;;;8.10;;
51654;SDS011;37732;53.106;7.030;2024-01-27T06:17:50;18.00;;;8.63;;
51654;SDS011;37732;53.106;7.030;2024-01-27T06:20:16;18.38;;;7.63;;
51654;SDS011;37732;53.106;7.030;2024-01-27T06:22:43;16.85;;;7.18;;
51654;SDS011;37732;53.106;7.030;2024-01-27T06:25:08;19.42;;;6.65;;
51654;SDS011;37732;53.106;7.030;2024-01-27T06:27:35;28.05;;;7.82;;
51654;SDS011;37732;53.106;7.030;2024-01-27T06:30:03;18.63;;;7.10;;
51654;SDS011;37732;53.106;7.030;2024-01-27T06:32:29;25.02;;;8.70;;
51654;SDS011;37732;53.106;7.030;2024-01-27T06:34:55;19.55;;;7.97;;
51654;SDS011;37732;53.106;7.030;2024-01-27T06:37:21;23.08;;;7.25;;
51654;SDS011;37732;53.106;7.030;2024-01-27T06:39:46;20.40;;;7.28;;
51654;SDS011;37732;53.106;7.030;2024-01-27T06:42:12;18.15;;;6.85;;
51654;SDS011;37732;53.106;7.030;2024-01-27T06:44:38;18.08;;;7.78;;
51654;SDS011;37732;53.106;7.030;2024-01-27T06:47:04;16.15;;;8.27;;
51654;SDS011;37732;53.106;7.030;2024-01-27T06:49:29;26.30;;;9.85;;
51654;SDS011;37732;53.106;7.030;2024-01-27T06:51:55;22.02;;;9.07;;
51654;SDS011;37732;53.106;7.030;2024-01-27T06:54:21;18.63;;;7.68;;
51654;SDS011;37732;53.106;7.030;2024-01-27T06:56:46;17.38;;;6.80;;
51654;SDS011;37732;53.106;7.030;2024-01-27T06:59:12;19.33;;;7.47;;
51654;SDS011;37732;53.106;7.030;2024-01-27T07:01:38;24.58;;;7.70;;
51654;SDS011;37732;53.106;7.030;2024-01-27T07:04:05;23.52;;;6.88;;
51654;SDS011;37732;53.106;7.030;2024-01-27T07:06:30;20.20;;;7.85;;
51654;SDS011;37732;53.106;7.030;2024-01-27T07:08:56;23.02;;;9.10;;
51654;SDS011;37732;53.106;7.030;2024-01-27T07:11:22;18.30;;;7.97;;
51654;SDS011;37732;53.106;7.030;2024-01-27T07:13:47;16.33;;;7.18;;
51654;SDS011;37732;53.106;7.030;2024-01-27T07:16:13;20.08;;;6.90;;
51654;SDS011;37732;53.106;7.030;2024-01-27T07:18:39;19.70;;;7.30;;
51654;SDS011;37732;53.106;7.030;2024-01-27T07:21:04;23.08;;;8.60;;
51654;SDS011;37732;53.106;7.030;2024-01-27T07:23:30;21.02;;;8.40;;
51654;SDS011;37732;53.106;7.030;2024-01-27T07:25:56;20.35;;;8.63;;
51654;SDS011;37732;53.106;7.030;2024-01-27T07:28:27;20.33;;;9.50;;
51654;SDS011;37732;53.106;7.030;2024-01-27T07:30:53;18.48;;;8.85;;
51654;SDS011;37732;53.106;7.030;2024-01-27T07:33:19;18.92;;;8.43;;
51654;SDS011;37732;53.106;7.030;2024-01-27T07:35:44;26.45;;;8.82;;
51654;SDS011;37732;53.106;7.030;2024-01-27T07:38:10;17.20;;;8.25;;
51654;SDS011;37732;53.106;7.030;2024-01-27T07:40:36;28.42;;;9.00;;
51654;SDS011;37732;53.106;7.030;2024-01-27T07:43:02;22.25;;;8.05;;
51654;SDS011;37732;53.106;7.030;2024-01-27T07:45:28;21.25;;;8.75;;
51654;SDS011;37732;53.106;7.030;2024-01-27T07:47:54;26.38;;;9.30;;
51654;SDS011;37732;53.106;7.030;2024-01-27T07:50:20;20.73;;;9.35;;
51654;SDS011;37732;53.106;7.030;2024-01-27T07:52:47;23.77;;;10.27;;
51654;SDS011;37732;53.106;7.030;2024-01-27T07:55:13;22.52;;;9.68;;
51654;SDS011;37732;53.106;7.030;2024-01-27T07:57:39;20.73;;;9.60;;
51654;SDS011;37732;53.106;7.030;2024-01-27T08:00:05;25.45;;;9.90;;
51654;SDS011;37732;53.106;7.030;2024-01-27T08:02:32;19.85;;;8.50;;
51654;SDS011;37732;53.106;7.030;2024-01-27T08:04:58;19.52;;;8.50;;
51654;SDS011;37732;53.106;7.030;2024-01-27T08:07:23;19.65;;;9.70;;
51654;SDS011;37732;53.106;7.030;2024-01-27T08:09:49;23.85;;;9.35;;
51654;SDS011;37732;53.106;7.030;2024-01-27T08:12:15;26.20;;;10.10;;
51654;SDS011;37732;53.106;7.030;2024-01-27T08:14:40;26.42;;;9.30;;
51654;SDS011;37732;53.106;7.030;2024-01-27T08:17:06;21.27;;;9.27;;
51654;SDS011;37732;53.106;7.030;2024-01-27T08:19:32;29.00;;;10.40;;
51654;SDS011;37732;53.106;7.030;2024-01-27T08:21:58;17.67;;;9.38;;
51654;SDS011;37732;53.106;7.030;2024-01-27T08:24:24;25.83;;;9.85;;
51654;SDS011;37732;53.106;7.030;2024-01-27T08:26:50;23.38;;;8.85;;
51654;SDS011;37732;53.106;7.030;2024-01-27T08:29:16;23.90;;;10.13;;
51654;SDS011;37732;53.106;7.030;2024-01-27T08:31:41;21.88;;;9.80;;
51654;SDS011;37732;53.106;7.030;2024-01-27T08:34:07;25.00;;;9.55;;
51654;SDS011;37732;53.106;7.030;2024-01-27T08:36:33;22.55;;;8.65;;
51654;SDS011;37732;53.106;7.030;2024-01-27T08:39:00;17.40;;;8.98;;
51654;SDS011;37732;53.106;7.030;2024-01-27T08:41:25;17.63;;;7.55;;
51654;SDS011;37732;53.106;7.030;2024-01-27T08:43:51;19.02;;;9.10;;
51654;SDS011;37732;53.106;7.030;2024-01-27T08:46:17;21.33;;;8.68;;
51654;SDS011;37732;53.106;7.030;2024-01-27T08:48:44;25.45;;;8.95;;
51654;SDS011;37732;53.106;7.030;2024-01-27T08:51:10;22.30;;;9.85;;
51654;SDS011;37732;53.106;7.030;2024-01-27T08:53:37;20.35;;;9.40;;
51654;SDS011;37732;53.106;7.030;2024-01-27T08:56:03;24.90;;;9.95;;
51654;SDS011;37732;53.106;7.030;2024-01-27T08:58:30;26.88;;;10.00;;
51654;SDS011;37732;53.106;7.030;2024-01-27T09:00:56;22.13;;;9.35;;
51654;SDS011;37732;53.106;7.030;2024-01-27T09:03:22;19.23;;;10.50;;
51654;SDS011;37732;53.106;7.030;2024-01-27T09:05:47;22.15;;;10.32;;
51654;SDS011;37732;53.106;7.030;2024-01-27T09:08:13;21.58;;;9.32;;
51654;SDS011;37732;53.106;7.030;2024-01-27T09:10:40;21.35;;;9.30;;
51654;SDS011;37732;53.106;7.030;2024-01-27T09:13:06;19.27;;;9.10;;
51654;SDS011;37732;53.106;7.030;2024-01-27T09:15:32;19.25;;;8.85;;
51654;SDS011;37732;53.106;7.030;2024-01-27T09:17:58;26.52;;;9.18;;
51654;SDS011;37732;53.106;7.030;2024-01-27T09:20:24;16.58;;;9.27;;
51654;SDS011;37732;53.106;7.030;2024-01-27T09:22:50;21.00;;;9.57;;
51654;SDS011;37732;53.106;7.030;2024-01-27T09:25:16;24.45;;;9.10;;
51654;SDS011;37732;53.106;7.030;2024-01-27T09:27:42;26.65;;;8.98;;
51654;SDS011;37732;53.106;7.030;2024-01-27T09:30:08;20.50;;;8.27;;
51654;SDS011;37732;53.106;7.030;2024-01-27T09:32:34;21.58;;;9.82;;
51654;SDS011;37732;53.106;7.030;2024-01-27T09:34:59;19.95;;;9.90;;
51654;SDS011;37732;53.106;7.030;2024-01-27T09:37:25;21.27;;;8.88;;
51654;SDS011;37732;53.106;7.030;2024-01-27T09:39:51;19.98;;;9.20;;
51654;SDS011;37732;53.106;7.030;2024-01-27T09:42:17;21.42;;;10.05;;
51654;SDS011;37732;53.106;7.030;2024-01-27T09:44:47;17.95;;;9.60;;
51654;SDS011;37732;53.106;7.030;2024-01-27T09:47:15;18.77;;;9.40;;
51654;SDS011;37732;53.106;7.030;2024-01-27T09:49:41;18.42;;;9.68;;
51654;SDS011;37732;53.106;7.030;2024-01-27T09:52:07;21.00;;;10.95;;
51654;SDS011;37732;53.106;7.030;2024-01-27T09:54:34;19.77;;;9.50;;
51654;SDS011;37732;53.106;7.030;2024-01-27T09:57:01;21.30;;;9.63;;
51654;SDS011;37732;53.106;7.030;2024-01-27T09:59:28;20.40;;;9.27;;
51654;SDS011;37732;53.106;7.030;2024-01-27T10:01:57;18.17;;;8.88;;
51654;SDS011;37732;53.106;7.030;2024-01-27T10:04:24;16.70;;;8.88;;
51654;SDS011;37732;53.106;7.030;2024-01-27T10:06:50;17.42;;;8.52;;
51654;SDS011;37732;53.106;7.030;2024-01-27T10:09:18;17.50;;;8.45;;
51654;SDS011;37732;53.106;7.030;2024-01-27T10:11:45;17.27;;;7.85;;
51654;SDS011;37732;53.106;7.030;2024-01-27T10:14:15;22.50;;;9.00;;
51654;SDS011;37732;53.106;7.030;2024-01-27T10:16:42;21.20;;;8.30;;
51654;SDS011;37732;53.106;7.030;2024-01-27T10:19:16;18.77;;;8.40;;
51654;SDS011;37732;53.106;7.030;2024-01-27T10:21:44;20.60;;;8.43;;
51654;SDS011;37732;53.106;7.030;2024-01-27T10:24:10;14.13;;;8.02;;
51654;SDS011;37732;53.106;7.030;2024-01-27T10:26:36;18.42;;;8.63;;
51654;SDS011;37732;53.106;7.030;2024-01-27T10:29:03;20.35;;;8.90;;
51654;SDS011;37732;53.106;7.030;2024-01-27T10:31:29;21.30;;;9.15;;
51654;SDS011;37732;53.106;7.030;2024-01-27T10:33:59;20.73;;;9.23;;
51654;SDS011;37732;53.106;7.030;2024-01-27T10:36:26;18.98;;;8.75;;
51654;SDS011;37732;53.106;7.030;2024-01-27T10:39:13;15.98;;;8.43;;
51654;SDS011;37732;53.106;7.030;2024-01-27T10:41:40;26.38;;;8.77;;
51654;SDS011;37732;53.106;7.030;2024-01-27T10:44:10;16.42;;;8.07;;
51654;SDS011;37732;53.106;7.030;2024-01-27T10:46:39;18.15;;;7.38;;
51654;SDS011;37732;53.106;7.030;2024-01-27T10:49:07;20.73;;;9.18;;
51654;SDS011;37732;53.106;7.030;2024-01-27T10:51:37;18.48;;;8.45;;
51654;SDS011;37732;53.106;7.030;2024-01-27T10:54:21;16.88;;;8.23;;
51654;SDS011;37732;53.106;7.030;2024-01-27T10:56:51;19.42;;;8.00;;
51654;SDS011;37732;53.106;7.030;2024-01-27T10:59:20;14.85;;;7.32;;
51654;SDS011;37732;53.106;7.030;2024-01-27T11:01:48;21.55;;;8.35;;
51654;SDS011;37732;53.106;7.030;2024-01-27T11:04:18;17.45;;;8.60;;
51654;SDS011;37732;53.106;7.030;2024-01-27T11:06:44;16.88;;;8.77;;
51654;SDS011;37732;53.106;7.030;2024-01-27T11:09:13;17.65;;;7.88;;
51654;SDS011;37732;53.106;7.030;2024-01-27T11:11:40;20.23;;;8.13;;
51654;SDS011;37732;53.106;7.030;2024-01-27T11:14:07;15.63;;;7.75;;
51654;SDS011;37732;53.106;7.030;2024-01-27T11:16:34;23.20;;;9.02;;
51654;SDS011;37732;53.106;7.030;2024-01-27T11:19:01;16.60;;;8.45;;
51654;SDS011;37732;53.106;7.030;2024-01-27T11:21:27;17.48;;;9.07;;
51654;SDS011;37732;53.106;7.030;2024-01-27T11:23:53;18.40;;;8.52;;
51654;SDS011;37732;53.106;7.030;2024-01-27T11:26:19;18.75;;;9.68;;
51654;SDS011;37732;53.106;7.030;2024-01-27T11:28:48;17.40;;;7.90;;
51654;SDS011;37732;53.106;7.030;2024-01-27T11:31:16;19.58;;;8.18;;
51654;SDS011;37732;53.106;7.030;2024-01-27T11:33:44;21.25;;;9.27;;
51654;SDS011;37732;53.106;7.030;2024-01-27T11:36:22;22.00;;;9.32;;
51654;SDS011;37732;53.106;7.030;2024-01-27T11:38:49;16.20;;;8.45;;
51654;SDS011;37732;53.106;7.030;2024-01-27T11:41:25;18.70;;;8.48;;
51654;SDS011;37732;53.106;7.030;2024-01-27T11:43:55;18.40;;;9.20;;
51654;SDS011;37732;53.106;7.030;2024-01-27T11:46:22;20.00;;;8.57;;
51654;SDS011;37732;53.106;7.030;2024-01-27T11:48:48;18.52;;;8.68;;
51654;SDS011;37732;53.106;7.030;2024-01-27T11:51:14;22.38;;;8.93;;
51654;SDS011;37732;53.106;7.030;2024-01-27T11:53:40;18.38;;;8.82;;
51654;SDS011;37732;53.106;7.030;2024-01-27T11:56:05;16.50;;;9.20;;
51654;SDS011;37732;53.106;7.030;2024-01-27T11:58:32;19.83;;;8.30;;
51654;SDS011;37732;53.106;7.030;2024-01-27T12:00:58;16.25;;;8.77;;
51654;SDS011;37732;53.106;7.030;2024-01-27T12:03:24;21.08;;;8.80;;
51654;SDS011;37732;53.106;7.030;2024-01-27T12:05:50;21.02;;;8.90;;
51654;SDS011;37732;53.106;7.030;2024-01-27T12:08:16;21.20;;;9.10;;
51654;SDS011;37732;53.106;7.030;2024-01-27T12:10:42;22.52;;;9.60;;
51654;SDS011;37732;53.106;7.030;2024-01-27T12:13:08;20.40;;;8.90;;
51654;SDS011;37732;53.106;7.030;2024-01-27T12:15:34;17.55;;;8.20;;
51654;SDS011;37732;53.106;7.030;2024-01-27T12:18:00;15.52;;;8.15;;
51654;SDS011;37732;53.106;7.030;2024-01-27T12:20:26;17.02;;;7.60;;
51654;SDS011;37732;53.106;7.030;2024-01-27T12:23:02;17.23;;;8.18;;
51654;SDS011;37732;53.106;7.030;2024-01-27T12:25:28;20.73;;;8.85;;
51654;SDS011;37732;53.106;7.030;2024-01-27T12:27:54;17.58;;;7.95;;
51654;SDS011;37732;53.106;7.030;2024-01-27T12:30:21;18.33;;;8.20;;
51654;SDS011;37732;53.106;7.030;2024-01-27T12:32:47;18.35;;;7.80;;
51654;SDS011;37732;53.106;7.030;2024-01-27T12:35:13;20.42;;;7.85;;
51654;SDS011;37732;53.106;7.030;2024-01-27T12:37:39;16.35;;;7.40;;
51654;SDS011;37732;53.106;7.030;2024-01-27T12:40:26;24.70;;;8.90;;
51654;SDS011;37732;53.106;7.030;2024-01-27T12:42:51;16.45;;;7.47;;
51654;SDS011;37732;53.106;7.030;2024-01-27T12:45:16;19.48;;;7.82;;
51654;SDS011;37732;53.106;7.030;2024-01-27T12:47:43;19.00;;;7.60;;
51654;SDS011;37732;53.106;7.030;2024-01-27T12:50:09;15.07;;;7.25;;
51654;SDS011;37732;53.106;7.030;2024-01-27T12:52:35;17.85;;;7.15;;
51654;SDS011;37732;53.106;7.030;2024-01-27T12:55:02;16.88;;;7.00;;
51654;SDS011;37732;53.106;7.030;2024-01-27T12:57:28;17.25;;;7.50;;
51654;SDS011;37732;53.106;7.030;2024-01-27T12:59:54;15.73;;;6.40;;
51654;SDS011;37732;53.106;7.030;2024-01-27T13:02:20;20.25;;;8.27;;
51654;SDS011;37732;53.106;7.030;2024-01-27T13:04:46;13.13;;;5.78;;
51654;SDS011;37732;53.106;7.030;2024-01-27T13:07:11;17.05;;;6.97;;
51654;SDS011;37732;53.106;7.030;2024-01-27T13:09:39;15.43;;;6.40;;
51654;SDS011;37732;53.106;7.030;2024-01-27T13:12:05;14.70;;;6.25;;
51654;SDS011;37732;53.106;7.030;2024-01-27T13:14:30;15.13;;;6.78;;
51654;SDS011;37732;53.106;7.030;2024-01-27T13:16:56;13.18;;;6.97;;
51654;SDS011;37732;53.106;7.030;2024-01-27T13:19:24;18.70;;;6.63;;
51654;SDS011;37732;53.106;7.030;2024-01-27T13:21:51;16.55;;;7.25;;
51654;SDS011;37732;53.106;7.030;2024-01-27T13:24:16;14.23;;;6.25;;
51654;SDS011;37732;53.106;7.030;2024-01-27T13:26:42;11.93;;;6.85;;
51654;SDS011;37732;53.106;7.030;2024-01-27T13:29:08;17.05;;;6.57;;
51654;SDS011;37732;53.106;7.030;2024-01-27T13:31:34;15.15;;;6.15;;
51654;SDS011;37732;53.106;7.030;2024-01-27T13:34:00;14.57;;;6.10;;
51654;SDS011;37732;53.106;7.030;2024-01-27T13:36:30;13.30;;;5.70;;
51654;SDS011;37732;53.106;7.030;2024-01-27T13:38:56;17.55;;;6.35;;
51654;SDS011;37732;53.106;7.030;2024-01-27T13:41:23;18.45;;;6.47;;
51654;SDS011;37732;53.106;7.030;2024-01-27T13:43:48;15.07;;;6.35;;
51654;SDS011;37732;53.106;7.030;2024-01-27T13:46:15;14.20;;;6.47;;
51654;SDS011;37732;53.106;7.030;2024-01-27T13:48:40;15.98;;;6.55;;
51654;SDS011;37732;53.106;7.030;2024-01-27T13:51:07;17.30;;;6.00;;
51654;SDS011;37732;53.106;7.030;2024-01-27T13:53:32;20.30;;;7.47;;
51654;SDS011;37732;53.106;7.030;2024-01-27T13:55:58;14.88;;;7.13;;
51654;SDS011;37732;53.106;7.030;2024-01-27T13:58:25;16.08;;;6.60;;
51654;SDS011;37732;53.106;7.030;2024-01-27T14:00:51;15.75;;;6.53;;
51654;SDS011;37732;53.106;7.030;2024-01-27T14:03:18;20.77;;;7.28;;
51654;SDS011;37732;53.106;7.030;2024-01-27T14:05:43;18.38;;;6.82;;
51654;SDS011;37732;53.106;7.030;2024-01-27T14:08:12;15.68;;;5.47;;
51654;SDS011;37732;53.106;7.030;2024-01-27T14:10:38;14.07;;;6.30;;
51654;SDS011;37732;53.106;7.030;2024-01-27T14:13:05;15.10;;;6.22;;
51654;SDS011;37732;53.106;7.030;2024-01-27T14:15:34;14.25;;;6.18;;
51654;SDS011;37732;53.106;7.030;2024-01-27T14:18:01;18.25;;;6.15;;
51654;SDS011;37732;53.106;7.030;2024-01-27T14:20:29;17.33;;;6.20;;
51654;SDS011;37732;53.106;7.030;2024-01-27T14:22:55;14.10;;;5.97;;
51654;SDS011;37732;53.106;7.030;2024-01-27T14:25:23;15.98;;;5.68;;
51654;SDS011;37732;53.106;7.030;2024-01-27T14:27:48;17.45;;;6.38;;
51654;SDS011;37732;53.106;7.030;2024-01-27T14:30:14;13.60;;;5.35;;